sensor_id;sensor_type;location;lat;lon;timestamp;P1;durP1;ratioP1;P2;durP2;ratioP2
39880;SDS011;25554;44.954;10.068;2023-06-26T00:00:23;9.02;;;6.55;;
39880;SDS011;25554;44.954;10.068;2023-06-26T00:02:50;12.45;;;7.95;;
39880;SDS011;25554;44.954;10.068;2023-06-26T00:05:17;11.98;;;8.43;;
39880;SDS011;25554;44.954;10.068;2023-06-26T00:07:43;11.20;;;7.70;;
39880;SDS011;25554;44.954;10.068;2023-06-26T00:10:10;8.07;;;6.70;;
39880;SDS011;25554;44.954;10.068;2023-06-26T00:12:36;8.73;;;6.68;;
39880;SDS011;25554;44.954;10.068;2023-06-26T00:15:06;9.68;;;7.03;;
39880;SDS011;25554;44.954;10.068;2023-06-26T00:17:33;12.88;;;7.78;;
39880;SDS011;25554;44.954;10.068;2023-06-26T00:20:02;10.15;;;8.13;;
39880;SDS011;25554;44.954;10.068;2023-06-26T00:22:32;9.45;;;7.30;;
39880;SDS011;25554;44.954;10.068;2023-06-26T00:27:24;9.25;;;7.28;;
39880;SDS011;25554;44.954;10.068;2023-06-26T00:29:51;8.82;;;7.13;;
39880;SDS011;25554;44.954;10.068;2023-06-26T00:32:18;11.02;;;8.30;;
39880;SDS011;25554;44.954;10.068;2023-06-26T00:34:45;12.48;;;8.32;;
39880;SDS011;25554;44.954;10.068;2023-06-26T00:37:14;18.35;;;9.32;;
39880;SDS011;25554;44.954;10.068;2023-06-26T00:39:41;9.18;;;7.50;;
39880;SDS011;25554;44.954;10.068;2023-06-26T00:42:07;15.32;;;8.55;;
39880;SDS011;25554;44.954;10.068;2023-06-26T00:44:36;11.88;;;7.72;;
39880;SDS011;25554;44.954;10.068;2023-06-26T00:47:03;9.57;;;7.68;;
39880;SDS011;25554;44.954;10.068;2023-06-26T00:49:30;11.40;;;8.27;;
39880;SDS011;25554;44.954;10.068;2023-06-26T00:51:59;10.90;;;8.35;;
39880;SDS011;25554;44.954;10.068;2023-06-26T00:56:51;14.10;;;9.32;;
39880;SDS011;25554;44.954;10.068;2023-06-26T01:01:44;13.52;;;8.75;;
39880;SDS011;25554;44.954;10.068;2023-06-26T01:04:11;14.13;;;9.70;;
39880;SDS011;25554;44.954;10.068;2023-06-26T01:06:46;12.63;;;9.02;;
39880;SDS011;25554;44.954;10.068;2023-06-26T01:09:15;10.50;;;8.93;;
39880;SDS011;25554;44.954;10.068;2023-06-26T01:11:42;16.02;;;9.93;;
39880;SDS011;25554;44.954;10.068;2023-06-26T01:14:09;9.77;;;8.65;;
39880;SDS011;25554;44.954;10.068;2023-06-26T01:16:35;16.00;;;9.85;;
39880;SDS011;25554;44.954;10.068;2023-06-26T01:19:02;10.40;;;8.18;;
39880;SDS011;25554;44.954;10.068;2023-06-26T01:21:35;11.10;;;9.27;;
39880;SDS011;25554;44.954;10.068;2023-06-26T01:24:16;13.20;;;9.63;;
39880;SDS011;25554;44.954;10.068;2023-06-26T01:26:49;11.77;;;9.32;;
39880;SDS011;25554;44.954;10.068;2023-06-26T01:29:16;12.90;;;9.40;;
39880;SDS011;25554;44.954;10.068;2023-06-26T01:31:44;11.95;;;9.38;;
39880;SDS011;25554;44.954;10.068;2023-06-26T01:34:14;10.38;;;8.88;;
39880;SDS011;25554;44.954;10.068;2023-06-26T01:36:40;11.27;;;9.13;;
39880;SDS011;25554;44.954;10.068;2023-06-26T01:39:07;11.05;;;8.45;;
39880;SDS011;25554;44.954;10.068;2023-06-26T01:51:58;11.55;;;9.30;;
39880;SDS011;25554;44.954;10.068;2023-06-26T01:54:29;11.02;;;9.68;;
39880;SDS011;25554;44.954;10.068;2023-06-26T01:56:57;13.60;;;9.98;;
39880;SDS011;25554;44.954;10.068;2023-06-26T01:59:24;12.48;;;8.90;;
39880;SDS011;25554;44.954;10.068;2023-06-26T02:01:52;10.77;;;9.13;;
39880;SDS011;25554;44.954;10.068;2023-06-26T02:04:18;14.05;;;9.25;;
39880;SDS011;25554;44.954;10.068;2023-06-26T02:06:45;10.30;;;9.20;;
39880;SDS011;25554;44.954;10.068;2023-06-26T02:11:38;30.88;;;10.60;;
39880;SDS011;25554;44.954;10.068;2023-06-26T02:14:05;31.60;;;11.38;;
39880;SDS011;25554;44.954;10.068;2023-06-26T02:16:31;20.40;;;9.65;;
39880;SDS011;25554;44.954;10.068;2023-06-26T02:18:58;15.40;;;9.20;;
39880;SDS011;25554;44.954;10.068;2023-06-26T02:23:53;57.10;;;11.80;;
39880;SDS011;25554;44.954;10.068;2023-06-26T02:26:20;19.73;;;9.27;;
39880;SDS011;25554;44.954;10.068;2023-06-26T02:31:13;15.90;;;9.80;;
39880;SDS011;25554;44.954;10.068;2023-06-26T02:33:41;14.35;;;9.93;;
39880;SDS011;25554;44.954;10.068;2023-06-26T02:36:08;20.85;;;9.63;;
39880;SDS011;25554;44.954;10.068;2023-06-26T02:41:02;87.07;;;14.23;;
39880;SDS011;25554;44.954;10.068;2023-06-26T02:43:29;36.92;;;10.38;;
39880;SDS011;25554;44.954;10.068;2023-06-26T02:45:56;18.65;;;10.07;;
39880;SDS011;25554;44.954;10.068;2023-06-26T02:48:22;22.20;;;9.48;;
39880;SDS011;25554;44.954;10.068;2023-06-26T02:53:15;12.85;;;8.65;;
39880;SDS011;25554;44.954;10.068;2023-06-26T02:55:44;12.68;;;9.23;;
39880;SDS011;25554;44.954;10.068;2023-06-26T02:58:13;16.67;;;8.93;;
39880;SDS011;25554;44.954;10.068;2023-06-26T03:00:40;13.00;;;9.50;;
39880;SDS011;25554;44.954;10.068;2023-06-26T03:03:09;15.02;;;9.50;;
39880;SDS011;25554;44.954;10.068;2023-06-26T03:05:36;15.57;;;9.80;;
39880;SDS011;25554;44.954;10.068;2023-06-26T03:08:02;14.60;;;9.15;;
39880;SDS011;25554;44.954;10.068;2023-06-26T03:10:29;17.58;;;9.93;;
39880;SDS011;25554;44.954;10.068;2023-06-26T03:12:57;13.82;;;9.63;;
39880;SDS011;25554;44.954;10.068;2023-06-26T03:15:23;10.75;;;7.90;;
39880;SDS011;25554;44.954;10.068;2023-06-26T03:20:22;19.88;;;9.20;;
39880;SDS011;25554;44.954;10.068;2023-06-26T03:22:53;15.35;;;8.25;;
39880;SDS011;25554;44.954;10.068;2023-06-26T03:25:21;14.30;;;9.07;;
39880;SDS011;25554;44.954;10.068;2023-06-26T03:27:51;10.35;;;8.48;;
39880;SDS011;25554;44.954;10.068;2023-06-26T03:30:18;14.32;;;9.27;;
39880;SDS011;25554;44.954;10.068;2023-06-26T03:32:48;10.63;;;8.88;;
39880;SDS011;25554;44.954;10.068;2023-06-26T03:35:16;16.25;;;9.63;;
39880;SDS011;25554;44.954;10.068;2023-06-26T03:37:43;13.50;;;9.75;;
39880;SDS011;25554;44.954;10.068;2023-06-26T03:40:11;14.10;;;10.55;;
39880;SDS011;25554;44.954;10.068;2023-06-26T03:42:37;17.88;;;9.68;;
39880;SDS011;25554;44.954;10.068;2023-06-26T03:45:04;15.13;;;9.57;;
39880;SDS011;25554;44.954;10.068;2023-06-26T03:47:32;13.90;;;9.52;;
39880;SDS011;25554;44.954;10.068;2023-06-26T03:52:25;12.40;;;9.88;;
39880;SDS011;25554;44.954;10.068;2023-06-26T03:54:52;17.73;;;10.50;;
39880;SDS011;25554;44.954;10.068;2023-06-26T03:59:46;22.58;;;11.63;;
39880;SDS011;25554;44.954;10.068;2023-06-26T04:02:13;15.38;;;11.45;;
39880;SDS011;25554;44.954;10.068;2023-06-26T04:04:42;19.63;;;12.75;;
39880;SDS011;25554;44.954;10.068;2023-06-26T04:07:09;22.02;;;12.27;;
39880;SDS011;25554;44.954;10.068;2023-06-26T04:09:36;15.55;;;12.07;;
39880;SDS011;25554;44.954;10.068;2023-06-26T04:12:03;14.38;;;10.90;;
39880;SDS011;25554;44.954;10.068;2023-06-26T04:14:30;13.55;;;11.23;;
39880;SDS011;25554;44.954;10.068;2023-06-26T04:19:23;17.38;;;11.63;;
39880;SDS011;25554;44.954;10.068;2023-06-26T04:21:50;11.63;;;10.35;;
39880;SDS011;25554;44.954;10.068;2023-06-26T04:24:17;14.35;;;10.35;;
39880;SDS011;25554;44.954;10.068;2023-06-26T04:29:11;15.65;;;10.57;;
39880;SDS011;25554;44.954;10.068;2023-06-26T04:34:03;11.90;;;9.55;;
39880;SDS011;25554;44.954;10.068;2023-06-26T04:36:30;13.43;;;10.63;;
39880;SDS011;25554;44.954;10.068;2023-06-26T04:38:58;11.60;;;9.65;;
39880;SDS011;25554;44.954;10.068;2023-06-26T04:41:25;14.30;;;10.85;;
39880;SDS011;25554;44.954;10.068;2023-06-26T04:43:52;14.75;;;11.10;;
39880;SDS011;25554;44.954;10.068;2023-06-26T04:48:45;16.10;;;11.63;;
39880;SDS011;25554;44.954;10.068;2023-06-26T04:51:12;15.95;;;11.43;;
39880;SDS011;25554;44.954;10.068;2023-06-26T04:53:39;14.90;;;11.75;;
39880;SDS011;25554;44.954;10.068;2023-06-26T04:56:05;18.05;;;11.88;;
39880;SDS011;25554;44.954;10.068;2023-06-26T04:58:32;15.02;;;10.93;;
39880;SDS011;25554;44.954;10.068;2023-06-26T05:00:58;14.40;;;11.65;;
39880;SDS011;25554;44.954;10.068;2023-06-26T05:05:51;13.48;;;10.77;;
39880;SDS011;25554;44.954;10.068;2023-06-26T05:08:21;16.77;;;10.68;;
39880;SDS011;25554;44.954;10.068;2023-06-26T05:10:47;16.95;;;11.23;;
39880;SDS011;25554;44.954;10.068;2023-06-26T05:13:14;17.98;;;10.75;;
39880;SDS011;25554;44.954;10.068;2023-06-26T05:15:43;19.42;;;11.35;;
39880;SDS011;25554;44.954;10.068;2023-06-26T05:18:10;16.40;;;10.50;;
39880;SDS011;25554;44.954;10.068;2023-06-26T05:20:37;13.60;;;10.45;;
39880;SDS011;25554;44.954;10.068;2023-06-26T05:23:03;12.13;;;9.88;;
39880;SDS011;25554;44.954;10.068;2023-06-26T05:25:30;13.60;;;10.70;;
39880;SDS011;25554;44.954;10.068;2023-06-26T05:27:57;13.75;;;10.57;;
39880;SDS011;25554;44.954;10.068;2023-06-26T05:30:24;17.17;;;10.63;;
39880;SDS011;25554;44.954;10.068;2023-06-26T05:32:52;11.30;;;10.02;;
39880;SDS011;25554;44.954;10.068;2023-06-26T05:35:22;12.60;;;9.75;;
39880;SDS011;25554;44.954;10.068;2023-06-26T05:37:49;14.40;;;9.75;;
39880;SDS011;25554;44.954;10.068;2023-06-26T05:40:17;13.63;;;10.30;;
39880;SDS011;25554;44.954;10.068;2023-06-26T05:42:44;12.07;;;10.00;;
39880;SDS011;25554;44.954;10.068;2023-06-26T05:45:11;13.48;;;10.75;;
39880;SDS011;25554;44.954;10.068;2023-06-26T05:47:37;13.90;;;9.95;;
39880;SDS011;25554;44.954;10.068;2023-06-26T05:50:04;12.32;;;10.25;;
39880;SDS011;25554;44.954;10.068;2023-06-26T05:52:31;15.05;;;10.27;;
39880;SDS011;25554;44.954;10.068;2023-06-26T05:54:58;15.63;;;9.93;;
39880;SDS011;25554;44.954;10.068;2023-06-26T05:57:29;14.10;;;9.07;;
39880;SDS011;25554;44.954;10.068;2023-06-26T05:59:56;19.63;;;9.98;;
39880;SDS011;25554;44.954;10.068;2023-06-26T06:02:22;13.02;;;9.90;;
39880;SDS011;25554;44.954;10.068;2023-06-26T06:04:49;11.50;;;8.98;;
39880;SDS011;25554;44.954;10.068;2023-06-26T06:09:42;12.77;;;9.85;;
39880;SDS011;25554;44.954;10.068;2023-06-26T06:12:09;15.25;;;10.82;;
39880;SDS011;25554;44.954;10.068;2023-06-26T06:14:35;14.30;;;10.65;;
39880;SDS011;25554;44.954;10.068;2023-06-26T06:17:02;12.95;;;10.85;;
39880;SDS011;25554;44.954;10.068;2023-06-26T06:19:28;13.40;;;10.32;;
39880;SDS011;25554;44.954;10.068;2023-06-26T06:21:55;14.40;;;10.15;;
39880;SDS011;25554;44.954;10.068;2023-06-26T06:24:22;16.92;;;10.95;;
39880;SDS011;25554;44.954;10.068;2023-06-26T06:26:48;15.57;;;11.35;;
39880;SDS011;25554;44.954;10.068;2023-06-26T06:29:15;22.38;;;12.27;;
39880;SDS011;25554;44.954;10.068;2023-06-26T06:31:41;23.73;;;10.82;;
39880;SDS011;25554;44.954;10.068;2023-06-26T06:34:08;16.70;;;10.40;;
39880;SDS011;25554;44.954;10.068;2023-06-26T06:36:34;20.95;;;10.15;;
39880;SDS011;25554;44.954;10.068;2023-06-26T06:39:01;14.10;;;9.65;;
39880;SDS011;25554;44.954;10.068;2023-06-26T06:41:28;13.25;;;10.50;;
39880;SDS011;25554;44.954;10.068;2023-06-26T06:43:55;10.73;;;8.48;;
39880;SDS011;25554;44.954;10.068;2023-06-26T06:46:22;12.80;;;8.80;;
39880;SDS011;25554;44.954;10.068;2023-06-26T06:48:48;14.63;;;7.65;;
39880;SDS011;25554;44.954;10.068;2023-06-26T06:51:15;9.73;;;8.57;;
39880;SDS011;25554;44.954;10.068;2023-06-26T06:53:41;10.25;;;8.50;;
39880;SDS011;25554;44.954;10.068;2023-06-26T06:56:08;13.02;;;7.78;;
39880;SDS011;25554;44.954;10.068;2023-06-26T06:58:35;10.95;;;7.40;;
39880;SDS011;25554;44.954;10.068;2023-06-26T07:01:01;18.00;;;11.93;;
39880;SDS011;25554;44.954;10.068;2023-06-26T07:03:29;12.88;;;9.20;;
39880;SDS011;25554;44.954;10.068;2023-06-26T07:05:56;15.27;;;9.90;;
39880;SDS011;25554;44.954;10.068;2023-06-26T07:08:22;9.57;;;7.55;;
39880;SDS011;25554;44.954;10.068;2023-06-26T07:10:49;9.40;;;7.35;;
39880;SDS011;25554;44.954;10.068;2023-06-26T07:13:15;10.25;;;7.15;;
39880;SDS011;25554;44.954;10.068;2023-06-26T07:15:42;11.10;;;7.68;;
39880;SDS011;25554;44.954;10.068;2023-06-26T07:18:09;11.93;;;8.73;;
39880;SDS011;25554;44.954;10.068;2023-06-26T07:20:36;11.15;;;8.13;;
39880;SDS011;25554;44.954;10.068;2023-06-26T07:23:02;12.25;;;10.07;;
39880;SDS011;25554;44.954;10.068;2023-06-26T07:25:29;22.63;;;9.82;;
39880;SDS011;25554;44.954;10.068;2023-06-26T07:27:55;11.60;;;9.38;;
39880;SDS011;25554;44.954;10.068;2023-06-26T07:30:22;15.82;;;10.25;;
39880;SDS011;25554;44.954;10.068;2023-06-26T07:32:49;9.07;;;7.85;;
39880;SDS011;25554;44.954;10.068;2023-06-26T07:35:16;12.32;;;8.80;;
39880;SDS011;25554;44.954;10.068;2023-06-26T07:37:42;12.43;;;9.57;;
39880;SDS011;25554;44.954;10.068;2023-06-26T07:40:09;11.63;;;7.97;;
39880;SDS011;25554;44.954;10.068;2023-06-26T07:42:36;10.93;;;7.15;;
39880;SDS011;25554;44.954;10.068;2023-06-26T07:45:02;10.02;;;7.00;;
39880;SDS011;25554;44.954;10.068;2023-06-26T07:47:35;7.88;;;7.03;;
39880;SDS011;25554;44.954;10.068;2023-06-26T07:50:02;8.27;;;6.32;;
39880;SDS011;25554;44.954;10.068;2023-06-26T07:52:29;9.35;;;6.78;;
39880;SDS011;25554;44.954;10.068;2023-06-26T07:54:56;7.85;;;5.20;;
39880;SDS011;25554;44.954;10.068;2023-06-26T07:57:23;10.80;;;6.88;;
39880;SDS011;25554;44.954;10.068;2023-06-26T07:59:50;8.18;;;6.65;;
39880;SDS011;25554;44.954;10.068;2023-06-26T08:02:16;8.00;;;7.13;;
39880;SDS011;25554;44.954;10.068;2023-06-26T08:04:43;11.63;;;7.38;;
39880;SDS011;25554;44.954;10.068;2023-06-26T08:07:10;10.57;;;6.78;;
39880;SDS011;25554;44.954;10.068;2023-06-26T08:09:36;9.25;;;7.30;;
39880;SDS011;25554;44.954;10.068;2023-06-26T08:12:03;13.27;;;8.15;;
39880;SDS011;25554;44.954;10.068;2023-06-26T08:14:30;13.95;;;8.45;;
39880;SDS011;25554;44.954;10.068;2023-06-26T08:16:57;36.35;;;8.23;;
39880;SDS011;25554;44.954;10.068;2023-06-26T08:19:25;11.43;;;7.80;;
39880;SDS011;25554;44.954;10.068;2023-06-26T08:21:51;15.98;;;11.98;;
39880;SDS011;25554;44.954;10.068;2023-06-26T08:24:18;10.60;;;8.20;;
39880;SDS011;25554;44.954;10.068;2023-06-26T08:26:45;14.98;;;7.90;;
39880;SDS011;25554;44.954;10.068;2023-06-26T08:29:12;8.65;;;6.05;;
39880;SDS011;25554;44.954;10.068;2023-06-26T08:31:39;15.38;;;7.55;;
39880;SDS011;25554;44.954;10.068;2023-06-26T08:34:06;14.10;;;7.75;;
39880;SDS011;25554;44.954;10.068;2023-06-26T08:36:33;9.35;;;6.80;;
39880;SDS011;25554;44.954;10.068;2023-06-26T08:38:59;11.60;;;6.93;;
39880;SDS011;25554;44.954;10.068;2023-06-26T08:41:26;8.90;;;6.70;;
39880;SDS011;25554;44.954;10.068;2023-06-26T08:43:53;12.20;;;7.50;;
39880;SDS011;25554;44.954;10.068;2023-06-26T08:46:19;8.73;;;6.53;;
39880;SDS011;25554;44.954;10.068;2023-06-26T08:48:54;7.20;;;5.60;;
39880;SDS011;25554;44.954;10.068;2023-06-26T08:51:23;8.63;;;6.65;;
39880;SDS011;25554;44.954;10.068;2023-06-26T08:53:58;7.25;;;5.65;;
39880;SDS011;25554;44.954;10.068;2023-06-26T08:56:35;7.75;;;5.78;;
39880;SDS011;25554;44.954;10.068;2023-06-26T08:59:04;11.38;;;5.75;;
39880;SDS011;25554;44.954;10.068;2023-06-26T09:01:31;6.72;;;5.50;;
39880;SDS011;25554;44.954;10.068;2023-06-26T09:03:58;6.20;;;4.97;;
39880;SDS011;25554;44.954;10.068;2023-06-26T09:06:24;8.52;;;4.70;;
39880;SDS011;25554;44.954;10.068;2023-06-26T09:08:51;12.50;;;4.50;;
39880;SDS011;25554;44.954;10.068;2023-06-26T09:11:17;7.30;;;4.68;;
39880;SDS011;25554;44.954;10.068;2023-06-26T09:13:44;6.20;;;3.70;;
39880;SDS011;25554;44.954;10.068;2023-06-26T09:16:10;6.50;;;3.85;;
39880;SDS011;25554;44.954;10.068;2023-06-26T09:18:38;7.22;;;4.10;;
39880;SDS011;25554;44.954;10.068;2023-06-26T09:21:07;7.72;;;4.53;;
39880;SDS011;25554;44.954;10.068;2023-06-26T09:23:34;8.07;;;4.28;;
39880;SDS011;25554;44.954;10.068;2023-06-26T09:26:04;8.40;;;4.45;;
39880;SDS011;25554;44.954;10.068;2023-06-26T09:28:34;9.90;;;3.97;;
39880;SDS011;25554;44.954;10.068;2023-06-26T09:31:02;5.80;;;4.38;;
39880;SDS011;25554;44.954;10.068;2023-06-26T09:33:33;13.90;;;4.78;;
39880;SDS011;25554;44.954;10.068;2023-06-26T09:36:06;7.68;;;4.57;;
39880;SDS011;25554;44.954;10.068;2023-06-26T09:38:35;5.35;;;3.88;;
39880;SDS011;25554;44.954;10.068;2023-06-26T09:41:02;7.00;;;5.03;;
39880;SDS011;25554;44.954;10.068;2023-06-26T09:43:29;13.85;;;4.38;;
39880;SDS011;25554;44.954;10.068;2023-06-26T09:45:57;9.15;;;4.82;;
39880;SDS011;25554;44.954;10.068;2023-06-26T09:48:24;8.57;;;5.18;;
39880;SDS011;25554;44.954;10.068;2023-06-26T09:50:51;6.10;;;4.65;;
39880;SDS011;25554;44.954;10.068;2023-06-26T09:53:19;7.40;;;4.13;;
39880;SDS011;25554;44.954;10.068;2023-06-26T09:55:46;5.55;;;4.35;;
39880;SDS011;25554;44.954;10.068;2023-06-26T09:58:12;8.88;;;4.82;;
39880;SDS011;25554;44.954;10.068;2023-06-26T10:00:43;10.90;;;7.35;;
39880;SDS011;25554;44.954;10.068;2023-06-26T10:03:12;8.25;;;4.80;;
39880;SDS011;25554;44.954;10.068;2023-06-26T10:05:39;8.00;;;4.72;;
39880;SDS011;25554;44.954;10.068;2023-06-26T10:08:06;5.93;;;4.50;;
39880;SDS011;25554;44.954;10.068;2023-06-26T10:10:33;5.70;;;4.80;;
39880;SDS011;25554;44.954;10.068;2023-06-26T10:13:08;5.05;;;4.55;;
39880;SDS011;25554;44.954;10.068;2023-06-26T10:15:40;5.82;;;4.05;;
39880;SDS011;25554;44.954;10.068;2023-06-26T10:18:09;4.95;;;4.53;;
39880;SDS011;25554;44.954;10.068;2023-06-26T10:20:37;7.63;;;4.63;;
39880;SDS011;25554;44.954;10.068;2023-06-26T10:23:05;7.53;;;4.50;;
39880;SDS011;25554;44.954;10.068;2023-06-26T10:25:34;4.40;;;3.85;;
39880;SDS011;25554;44.954;10.068;2023-06-26T10:28:06;5.18;;;4.15;;
39880;SDS011;25554;44.954;10.068;2023-06-26T10:30:34;6.63;;;3.92;;
39880;SDS011;25554;44.954;10.068;2023-06-26T10:33:02;6.25;;;4.03;;
39880;SDS011;25554;44.954;10.068;2023-06-26T10:35:30;6.25;;;3.88;;
39880;SDS011;25554;44.954;10.068;2023-06-26T10:38:01;6.03;;;4.45;;
39880;SDS011;25554;44.954;10.068;2023-06-26T10:40:45;5.80;;;4.20;;
39880;SDS011;25554;44.954;10.068;2023-06-26T10:43:14;6.50;;;4.03;;
39880;SDS011;25554;44.954;10.068;2023-06-26T10:45:45;4.57;;;4.18;;
39880;SDS011;25554;44.954;10.068;2023-06-26T10:48:17;5.07;;;4.00;;
39880;SDS011;25554;44.954;10.068;2023-06-26T10:50:46;5.57;;;3.85;;
39880;SDS011;25554;44.954;10.068;2023-06-26T10:55:54;4.53;;;4.00;;
39880;SDS011;25554;44.954;10.068;2023-06-26T11:03:44;10.60;;;4.65;;
39880;SDS011;25554;44.954;10.068;2023-06-26T11:06:12;5.10;;;4.10;;
39880;SDS011;25554;44.954;10.068;2023-06-26T11:08:59;7.10;;;3.92;;
39880;SDS011;25554;44.954;10.068;2023-06-26T11:14:18;5.40;;;3.80;;
39880;SDS011;25554;44.954;10.068;2023-06-26T11:16:45;4.85;;;4.45;;
39880;SDS011;25554;44.954;10.068;2023-06-26T11:19:13;6.88;;;4.55;;
39880;SDS011;25554;44.954;10.068;2023-06-26T11:21:40;6.32;;;4.55;;
39880;SDS011;25554;44.954;10.068;2023-06-26T11:24:06;6.00;;;4.60;;
39880;SDS011;25554;44.954;10.068;2023-06-26T11:26:40;5.18;;;4.68;;
39880;SDS011;25554;44.954;10.068;2023-06-26T11:29:07;8.57;;;4.47;;
39880;SDS011;25554;44.954;10.068;2023-06-26T11:31:35;4.50;;;3.95;;
39880;SDS011;25554;44.954;10.068;2023-06-26T11:34:04;4.82;;;3.97;;
39880;SDS011;25554;44.954;10.068;2023-06-26T11:36:33;5.43;;;4.35;;
39880;SDS011;25554;44.954;10.068;2023-06-26T11:39:03;4.70;;;4.03;;
39880;SDS011;25554;44.954;10.068;2023-06-26T11:41:35;5.57;;;3.95;;
39880;SDS011;25554;44.954;10.068;2023-06-26T11:46:29;4.57;;;4.18;;
39880;SDS011;25554;44.954;10.068;2023-06-26T11:48:57;6.38;;;4.28;;
39880;SDS011;25554;44.954;10.068;2023-06-26T11:51:23;5.18;;;4.47;;
39880;SDS011;25554;44.954;10.068;2023-06-26T11:53:53;7.72;;;4.30;;
39880;SDS011;25554;44.954;10.068;2023-06-26T11:56:19;6.80;;;4.30;;
39880;SDS011;25554;44.954;10.068;2023-06-26T12:01:34;5.03;;;4.25;;
39880;SDS011;25554;44.954;10.068;2023-06-26T12:04:11;6.00;;;4.22;;
39880;SDS011;25554;44.954;10.068;2023-06-26T12:06:40;7.65;;;4.97;;
39880;SDS011;25554;44.954;10.068;2023-06-26T12:09:09;6.32;;;4.82;;
39880;SDS011;25554;44.954;10.068;2023-06-26T12:14:31;7.93;;;4.40;;
39880;SDS011;25554;44.954;10.068;2023-06-26T12:17:17;19.98;;;11.20;;
39880;SDS011;25554;44.954;10.068;2023-06-26T12:19:49;6.72;;;5.25;;
39880;SDS011;25554;44.954;10.068;2023-06-26T12:22:16;6.18;;;4.35;;
39880;SDS011;25554;44.954;10.068;2023-06-26T12:24:47;8.77;;;4.03;;
39880;SDS011;25554;44.954;10.068;2023-06-26T12:27:14;4.60;;;4.20;;
39880;SDS011;25554;44.954;10.068;2023-06-26T12:29:46;11.52;;;4.75;;
39880;SDS011;25554;44.954;10.068;2023-06-26T12:32:17;5.00;;;4.50;;
39880;SDS011;25554;44.954;10.068;2023-06-26T12:34:46;4.13;;;3.63;;
39880;SDS011;25554;44.954;10.068;2023-06-26T12:37:15;5.55;;;4.60;;
39880;SDS011;25554;44.954;10.068;2023-06-26T12:42:20;6.70;;;4.43;;
39880;SDS011;25554;44.954;10.068;2023-06-26T12:44:51;5.60;;;4.30;;
39880;SDS011;25554;44.954;10.068;2023-06-26T12:47:19;7.35;;;5.00;;
39880;SDS011;25554;44.954;10.068;2023-06-26T12:49:53;7.13;;;4.72;;
39880;SDS011;25554;44.954;10.068;2023-06-26T12:52:20;5.40;;;4.57;;
39880;SDS011;25554;44.954;10.068;2023-06-26T12:54:47;6.55;;;4.53;;
39880;SDS011;25554;44.954;10.068;2023-06-26T12:57:21;5.18;;;3.90;;
39880;SDS011;25554;44.954;10.068;2023-06-26T12:59:50;6.85;;;4.50;;
39880;SDS011;25554;44.954;10.068;2023-06-26T13:02:17;5.82;;;4.00;;
39880;SDS011;25554;44.954;10.068;2023-06-26T13:04:43;6.97;;;4.05;;
39880;SDS011;25554;44.954;10.068;2023-06-26T13:07:10;19.58;;;4.70;;
39880;SDS011;25554;44.954;10.068;2023-06-26T13:09:37;5.25;;;4.50;;
39880;SDS011;25554;44.954;10.068;2023-06-26T13:12:04;5.80;;;4.45;;
39880;SDS011;25554;44.954;10.068;2023-06-26T13:14:31;6.40;;;4.57;;
39880;SDS011;25554;44.954;10.068;2023-06-26T13:16:59;5.95;;;4.68;;
39880;SDS011;25554;44.954;10.068;2023-06-26T13:19:26;5.15;;;4.65;;
39880;SDS011;25554;44.954;10.068;2023-06-26T13:21:53;6.97;;;4.10;;
39880;SDS011;25554;44.954;10.068;2023-06-26T13:24:19;5.15;;;4.03;;
39880;SDS011;25554;44.954;10.068;2023-06-26T13:26:46;6.50;;;4.65;;
39880;SDS011;25554;44.954;10.068;2023-06-26T13:29:12;5.03;;;4.53;;
39880;SDS011;25554;44.954;10.068;2023-06-26T13:31:39;4.40;;;3.97;;
39880;SDS011;25554;44.954;10.068;2023-06-26T13:34:05;4.75;;;4.35;;
39880;SDS011;25554;44.954;10.068;2023-06-26T13:36:31;4.95;;;4.15;;
39880;SDS011;25554;44.954;10.068;2023-06-26T13:38:59;5.10;;;4.50;;
39880;SDS011;25554;44.954;10.068;2023-06-26T13:41:26;5.53;;;4.22;;
39880;SDS011;25554;44.954;10.068;2023-06-26T13:43:53;4.45;;;4.05;;
39880;SDS011;25554;44.954;10.068;2023-06-26T13:46:20;8.48;;;4.35;;
39880;SDS011;25554;44.954;10.068;2023-06-26T13:48:46;4.80;;;4.30;;
39880;SDS011;25554;44.954;10.068;2023-06-26T13:51:13;5.13;;;4.20;;
39880;SDS011;25554;44.954;10.068;2023-06-26T13:53:39;7.05;;;4.05;;
39880;SDS011;25554;44.954;10.068;2023-06-26T13:56:05;5.90;;;4.30;;
39880;SDS011;25554;44.954;10.068;2023-06-26T14:01:00;5.38;;;4.90;;
39880;SDS011;25554;44.954;10.068;2023-06-26T14:03:26;5.97;;;4.70;;
39880;SDS011;25554;44.954;10.068;2023-06-26T14:05:54;5.25;;;4.50;;
39880;SDS011;25554;44.954;10.068;2023-06-26T14:08:20;4.57;;;4.05;;
39880;SDS011;25554;44.954;10.068;2023-06-26T14:10:46;5.88;;;4.50;;
39880;SDS011;25554;44.954;10.068;2023-06-26T14:13:13;4.70;;;4.22;;
39880;SDS011;25554;44.954;10.068;2023-06-26T14:15:41;6.88;;;4.95;;
39880;SDS011;25554;44.954;10.068;2023-06-26T14:18:07;4.43;;;3.90;;
39880;SDS011;25554;44.954;10.068;2023-06-26T14:20:34;5.80;;;4.50;;
39880;SDS011;25554;44.954;10.068;2023-06-26T14:23:01;7.35;;;4.18;;
39880;SDS011;25554;44.954;10.068;2023-06-26T14:25:28;9.90;;;4.07;;
39880;SDS011;25554;44.954;10.068;2023-06-26T14:27:55;4.40;;;4.00;;
39880;SDS011;25554;44.954;10.068;2023-06-26T14:30:22;5.15;;;3.97;;
39880;SDS011;25554;44.954;10.068;2023-06-26T14:32:49;5.93;;;4.35;;
39880;SDS011;25554;44.954;10.068;2023-06-26T14:35:16;5.25;;;4.45;;
39880;SDS011;25554;44.954;10.068;2023-06-26T14:37:42;5.43;;;4.80;;
39880;SDS011;25554;44.954;10.068;2023-06-26T14:40:09;7.03;;;4.20;;
39880;SDS011;25554;44.954;10.068;2023-06-26T14:42:36;8.15;;;4.22;;
39880;SDS011;25554;44.954;10.068;2023-06-26T14:45:03;6.32;;;4.47;;
39880;SDS011;25554;44.954;10.068;2023-06-26T14:47:29;4.85;;;4.20;;
39880;SDS011;25554;44.954;10.068;2023-06-26T14:49:56;5.72;;;5.20;;
39880;SDS011;25554;44.954;10.068;2023-06-26T14:52:22;6.70;;;4.80;;
39880;SDS011;25554;44.954;10.068;2023-06-26T14:54:49;6.05;;;5.07;;
39880;SDS011;25554;44.954;10.068;2023-06-26T14:57:21;5.28;;;4.85;;
39880;SDS011;25554;44.954;10.068;2023-06-26T14:59:48;5.78;;;5.28;;
39880;SDS011;25554;44.954;10.068;2023-06-26T15:02:17;5.15;;;4.43;;
39880;SDS011;25554;44.954;10.068;2023-06-26T15:04:44;6.15;;;4.93;;
39880;SDS011;25554;44.954;10.068;2023-06-26T15:07:11;5.72;;;5.03;;
39880;SDS011;25554;44.954;10.068;2023-06-26T15:09:40;6.43;;;4.45;;
39880;SDS011;25554;44.954;10.068;2023-06-26T15:12:07;6.80;;;4.80;;
39880;SDS011;25554;44.954;10.068;2023-06-26T15:14:34;6.45;;;5.00;;
39880;SDS011;25554;44.954;10.068;2023-06-26T15:17:00;6.82;;;4.80;;
39880;SDS011;25554;44.954;10.068;2023-06-26T15:19:27;5.15;;;4.65;;
39880;SDS011;25554;44.954;10.068;2023-06-26T15:21:54;5.80;;;5.13;;
39880;SDS011;25554;44.954;10.068;2023-06-26T15:24:20;9.48;;;4.55;;
39880;SDS011;25554;44.954;10.068;2023-06-26T15:26:47;7.93;;;4.15;;
39880;SDS011;25554;44.954;10.068;2023-06-26T15:29:14;5.88;;;4.72;;
39880;SDS011;25554;44.954;10.068;2023-06-26T15:31:43;6.35;;;4.60;;
39880;SDS011;25554;44.954;10.068;2023-06-26T15:34:09;6.90;;;4.85;;
39880;SDS011;25554;44.954;10.068;2023-06-26T15:36:36;7.97;;;5.25;;
39880;SDS011;25554;44.954;10.068;2023-06-26T15:39:03;5.55;;;4.70;;
39880;SDS011;25554;44.954;10.068;2023-06-26T15:41:30;5.28;;;4.78;;
39880;SDS011;25554;44.954;10.068;2023-06-26T15:44:00;6.07;;;4.57;;